createdAt,value
2022-12-15T00:01:24.816Z,87.83
2022-12-15T00:04:12.031Z,87.96
2022-12-15T00:06:59.313Z,88.05
2022-12-15T00:09:47.740Z,87.99
2022-12-15T00:12:35.270Z,88.16
2022-12-15T00:15:23.041Z,88.43
2022-12-15T00:18:10.797Z,88.37
2022-12-15T00:20:58.216Z,88.39
2022-12-15T00:23:45.389Z,88.54
2022-12-15T00:26:32.473Z,88.64
2022-12-15T00:29:19.619Z,88.66
2022-12-15T00:32:07.873Z,88.65
2022-12-15T00:34:55.459Z,88.62
2022-12-15T00:37:42.613Z,88.60
2022-12-15T00:40:13.354Z,88.67
2022-12-15T00:42:42.146Z,88.72
2022-12-15T00:45:11.848Z,88.56
2022-12-15T00:47:40.502Z,88.49
2022-12-15T00:50:28.418Z,88.44
2022-12-15T00:53:15.401Z,88.54
2022-12-15T00:56:02.716Z,88.64
2022-12-15T00:58:49.781Z,88.69
2022-12-15T01:01:37.127Z,88.80
2022-12-15T01:04:24.936Z,88.80
2022-12-15T01:07:11.938Z,88.83
2022-12-15T01:09:59.026Z,88.82
2022-12-15T01:12:46.136Z,88.93
2022-12-15T01:15:33.204Z,88.98
2022-12-15T01:18:20.318Z,89.05
2022-12-15T01:20:56.836Z,89.05
2022-12-15T01:23:25.978Z,88.95
2022-12-15T01:25:56.217Z,88.98
2022-12-15T01:28:26.618Z,89.08
2022-12-15T01:30:58.408Z,89.18
2022-12-15T01:33:27.653Z,89.27
2022-12-15T01:35:59.410Z,89.36
2022-12-15T01:38:29.869Z,89.37
2022-12-15T01:41:05.385Z,89.29
2022-12-15T01:43:36.427Z,89.17
2022-12-15T01:46:08.027Z,89.26
2022-12-15T01:48:41.271Z,89.25
2022-12-15T01:51:18.358Z,89.28
2022-12-15T01:53:53.328Z,89.31
2022-12-15T01:56:26.345Z,89.29
2022-12-15T01:59:00.447Z,89.22
2022-12-15T02:01:30.303Z,89.16
2022-12-15T02:04:00.600Z,89.19
2022-12-15T02:06:30.658Z,89.19
2022-12-15T02:09:01.189Z,89.28
2022-12-15T02:11:50.639Z,89.21
2022-12-15T02:14:31.834Z,89.17
2022-12-15T02:17:14.527Z,89.21
2022-12-15T02:20:21.022Z,89.25
2022-12-15T02:23:16.872Z,89.25
2022-12-15T02:26:10.207Z,89.27
2022-12-15T02:28:52.710Z,89.25
2022-12-15T02:31:46.462Z,89.32
2022-12-15T02:34:27.093Z,89.34
2022-12-15T02:37:00.208Z,89.25
2022-12-15T02:39:30.997Z,89.37
2022-12-15T02:42:00.489Z,89.44
2022-12-15T02:44:33.477Z,89.50
2022-12-15T02:47:27.430Z,89.53
2022-12-15T02:50:18.258Z,89.51
2022-12-15T02:52:59.646Z,89.53
2022-12-15T02:55:39.700Z,89.64
2022-12-15T02:58:18.626Z,89.65
2022-12-15T03:00:53.742Z,89.63
2022-12-15T03:03:23.615Z,89.63
2022-12-15T03:05:54.211Z,89.66
2022-12-15T03:08:23.158Z,89.66
2022-12-15T03:10:54.686Z,89.76
2022-12-15T03:13:26.140Z,89.74
2022-12-15T03:15:54.851Z,89.83
2022-12-15T03:18:23.555Z,89.92
2022-12-15T03:20:53.945Z,89.86
2022-12-15T03:23:22.629Z,89.83
2022-12-15T03:25:52.553Z,89.94
2022-12-15T03:28:21.263Z,89.95
2022-12-15T03:30:51.810Z,89.89
2022-12-15T03:33:22.095Z,89.81
2022-12-15T03:35:52.111Z,89.81
2022-12-15T03:38:21.078Z,89.79
2022-12-15T03:40:51.247Z,89.76
2022-12-15T03:43:19.973Z,89.74
2022-12-15T03:45:49.112Z,89.68
2022-12-15T03:48:19.535Z,89.61
2022-12-15T03:50:52.419Z,89.51
2022-12-15T03:53:21.630Z,89.51
2022-12-15T03:55:52.304Z,89.49
2022-12-15T03:58:21.027Z,89.46
2022-12-15T04:00:52.111Z,89.38
2022-12-15T04:03:21.153Z,89.38
2022-12-15T04:05:52.586Z,89.35
2022-12-15T04:08:26.092Z,89.34
2022-12-15T04:10:54.763Z,89.32
2022-12-15T04:13:23.434Z,89.33
2022-12-15T04:15:54.487Z,89.38
2022-12-15T04:18:23.277Z,89.44
2022-12-15T04:20:55.097Z,89.49
2022-12-15T04:23:25.231Z,89.52
2022-12-15T04:26:12.642Z,89.54
2022-12-15T04:29:00.215Z,89.56
2022-12-15T04:31:50.664Z,89.58
2022-12-15T04:34:40.667Z,89.61
2022-12-15T04:37:32.423Z,89.70
2022-12-15T04:40:19.652Z,89.74
2022-12-15T04:43:07.403Z,89.71
2022-12-15T04:45:59.575Z,89.78
2022-12-15T04:48:47.010Z,89.79
2022-12-15T04:51:34.055Z,89.90
2022-12-15T04:54:21.482Z,89.89
2022-12-15T04:57:08.370Z,89.98
2022-12-15T04:59:55.867Z,89.95
2022-12-15T05:02:43.324Z,89.98
2022-12-15T05:05:32.109Z,89.98
2022-12-15T05:08:19.737Z,90.01
2022-12-15T05:11:06.621Z,90.03
2022-12-15T05:13:53.935Z,90.02
2022-12-15T05:16:42.189Z,90.02
2022-12-15T05:19:29.116Z,90.02
2022-12-15T05:22:18.524Z,90.02
2022-12-15T05:25:05.566Z,90.09
2022-12-15T05:27:52.863Z,90.08
2022-12-15T05:30:40.184Z,90.14
2022-12-15T05:33:09.025Z,90.20
2022-12-15T05:35:40.102Z,90.17
2022-12-15T05:38:08.942Z,90.10
2022-12-15T05:40:39.522Z,90.03
2022-12-15T05:43:09.024Z,90.13
2022-12-15T05:45:39.973Z,90.13
2022-12-15T05:48:08.634Z,90.04
2022-12-15T05:50:38.003Z,90.13
2022-12-15T05:53:08.159Z,90.16
2022-12-15T05:55:38.293Z,90.19
2022-12-15T05:58:07.912Z,90.26
2022-12-15T06:00:39.443Z,90.33
2022-12-15T06:03:08.097Z,90.34
2022-12-15T06:05:39.094Z,90.27
2022-12-15T06:08:07.863Z,90.23
2022-12-15T06:10:39.537Z,90.22
2022-12-15T06:13:09.573Z,90.24
2022-12-15T06:15:42.439Z,90.25
2022-12-15T06:18:11.435Z,90.24
2022-12-15T06:20:40.992Z,90.15
2022-12-15T06:23:11.570Z,90.20
2022-12-15T06:25:42.145Z,90.14
2022-12-15T06:28:11.963Z,90.22
2022-12-15T06:30:43.427Z,90.28
2022-12-15T06:33:13.284Z,90.29
2022-12-15T06:35:42.651Z,90.32
2022-12-15T06:38:12.664Z,90.43
2022-12-15T06:40:42.818Z,90.27
2022-12-15T06:43:12.215Z,90.29
2022-12-15T06:45:49.906Z,90.22
2022-12-15T06:48:22.374Z,90.17
2022-12-15T06:50:57.769Z,90.17
2022-12-15T06:53:26.523Z,89.97
2022-12-15T06:56:02.332Z,90.00
2022-12-15T06:58:31.001Z,89.92
2022-12-15T07:01:04.773Z,89.91
2022-12-15T07:03:34.552Z,89.98
2022-12-15T07:06:05.932Z,90.02
2022-12-15T07:08:41.178Z,89.98
2022-12-15T07:11:12.557Z,89.90
2022-12-15T07:13:41.540Z,89.95
2022-12-15T07:16:12.145Z,89.86
2022-12-15T07:18:40.965Z,89.88
2022-12-15T07:21:10.707Z,89.77
2022-12-15T07:23:54.023Z,89.88
2022-12-15T07:26:25.490Z,89.89
2022-12-15T07:28:54.620Z,89.87
2022-12-15T07:31:23.785Z,89.77
2022-12-15T07:33:54.050Z,89.60
2022-12-15T07:36:23.389Z,89.65
2022-12-15T07:38:56.787Z,89.67
2022-12-15T07:41:25.719Z,89.57
2022-12-15T07:43:54.733Z,89.58
2022-12-15T07:46:25.257Z,89.65
2022-12-15T07:48:54.557Z,89.67
2022-12-15T07:51:23.358Z,89.57
2022-12-15T07:53:52.762Z,89.53
2022-12-15T07:56:21.509Z,89.57
2022-12-15T07:58:52.587Z,89.50
2022-12-15T08:01:21.547Z,89.48
2022-12-15T08:03:50.609Z,89.41
2022-12-15T08:06:20.690Z,89.43
2022-12-15T08:08:50.659Z,89.38
2022-12-15T08:11:24.135Z,89.29
2022-12-15T08:14:02.927Z,89.21
2022-12-15T08:16:34.035Z,89.25
2022-12-15T08:19:04.757Z,89.23
2022-12-15T08:21:34.216Z,89.16
2022-12-15T08:24:03.824Z,89.11
2022-12-15T08:26:32.672Z,89.09
2022-12-15T08:29:31.791Z,89.03
2022-12-15T08:31:54.659Z,88.99
2022-12-15T08:34:24.004Z,88.95
2022-12-15T08:36:55.414Z,88.93
2022-12-15T08:39:24.112Z,88.86
2022-12-15T08:41:55.786Z,88.81
2022-12-15T08:44:24.608Z,88.70
2022-12-15T08:46:53.859Z,88.60
2022-12-15T08:49:22.960Z,88.49
2022-12-15T08:51:51.954Z,88.40
2022-12-15T08:54:21.537Z,88.37
2022-12-15T08:56:50.453Z,88.18
2022-12-15T08:59:19.658Z,88.17
2022-12-15T09:01:48.706Z,88.10
2022-12-15T09:04:18.060Z,88.12
2022-12-15T09:06:50.607Z,88.10
2022-12-15T09:09:20.382Z,88.03
2022-12-15T09:11:49.418Z,87.85
2022-12-15T09:14:21.564Z,87.89
2022-12-15T09:16:56.779Z,87.69
2022-12-15T09:19:27.373Z,87.58
2022-12-15T09:21:56.450Z,87.70
2022-12-15T09:24:34.268Z,87.46
2022-12-15T09:27:04.475Z,87.49
2022-12-15T09:29:33.733Z,87.41
2022-12-15T09:32:04.067Z,87.37
2022-12-15T09:34:35.952Z,87.15
2022-12-15T09:37:04.692Z,87.15
2022-12-15T09:39:33.502Z,87.00
2022-12-15T09:42:02.334Z,87.00
2022-12-15T09:44:33.054Z,86.96
2022-12-15T09:47:24.715Z,86.75
2022-12-15T09:49:58.192Z,86.67
2022-12-15T09:52:30.003Z,86.61
2022-12-15T09:55:01.171Z,86.57
2022-12-15T09:57:40.287Z,86.43
2022-12-15T10:00:17.168Z,85.87
2022-12-15T10:03:24.414Z,85.31
2022-12-15T10:06:16.104Z,85.40
2022-12-15T10:08:50.700Z,85.67
2022-12-15T10:11:35.809Z,85.93
2022-12-15T10:14:14.263Z,85.91
2022-12-15T10:16:55.590Z,85.85
2022-12-15T10:19:31.465Z,85.47
2022-12-15T10:22:00.830Z,85.26
2022-12-15T10:25:07.994Z,86.07
2022-12-15T10:28:02.144Z,85.87
2022-12-15T10:30:31.199Z,84.93
2022-12-15T10:33:03.620Z,85.24
2022-12-15T10:35:37.115Z,84.81
2022-12-15T10:38:16.191Z,84.88
2022-12-15T10:40:50.336Z,84.92
2022-12-15T10:43:40.343Z,84.88
2022-12-15T10:46:14.355Z,84.73
2022-12-15T10:48:43.626Z,84.84
2022-12-15T10:51:19.301Z,84.91
2022-12-15T10:53:51.146Z,84.85
2022-12-15T10:56:28.833Z,84.55
2022-12-15T10:59:04.045Z,84.29
2022-12-15T11:01:35.097Z,84.17
2022-12-15T11:04:05.512Z,84.23
2022-12-15T11:06:36.317Z,84.29
2022-12-15T11:09:26.755Z,83.74
2022-12-15T11:12:15.051Z,83.76
2022-12-15T11:14:46.305Z,83.89
2022-12-15T11:17:18.394Z,84.01
2022-12-15T11:19:58.198Z,84.30
2022-12-15T11:22:46.761Z,84.35
2022-12-15T11:25:34.028Z,84.44
2022-12-15T11:28:06.778Z,84.59
2022-12-15T11:30:42.971Z,84.97
2022-12-15T11:33:11.912Z,84.93
2022-12-15T11:35:57.411Z,84.90
2022-12-15T11:38:34.906Z,85.03
2022-12-15T11:41:13.131Z,85.16
2022-12-15T11:47:06.626Z,85.41
2022-12-15T11:49:55.016Z,85.42
2022-12-15T11:52:50.302Z,85.47
2022-12-15T11:55:32.151Z,85.52
2022-12-15T11:58:32.726Z,85.73
2022-12-15T12:01:09.854Z,85.64
2022-12-15T12:03:54.876Z,85.67
2022-12-15T12:06:32.466Z,85.94
2022-12-15T12:09:17.945Z,85.87
2022-12-15T12:11:55.208Z,85.84
2022-12-15T12:14:39.101Z,85.90
2022-12-15T12:17:14.354Z,85.87
2022-12-15T12:19:47.124Z,85.97
2022-12-15T12:22:25.773Z,86.01
2022-12-15T12:25:00.056Z,85.94
2022-12-15T12:27:33.756Z,86.09
2022-12-15T12:30:06.473Z,86.15
2022-12-15T12:32:47.137Z,86.34
2022-12-15T12:35:30.690Z,86.38
2022-12-15T12:38:04.630Z,86.49
2022-12-15T12:40:52.347Z,86.65
2022-12-15T12:43:32.686Z,86.55
2022-12-15T12:46:09.744Z,86.47
2022-12-15T12:48:43.400Z,86.70
2022-12-15T12:51:25.448Z,86.71
2022-12-15T12:53:56.609Z,86.69
2022-12-15T12:56:39.996Z,86.71
2022-12-15T12:59:35.862Z,86.76
2022-12-15T13:02:37.800Z,86.72
2022-12-15T13:05:31.070Z,86.86
2022-12-15T13:08:50.843Z,86.81
2022-12-15T13:11:57.023Z,86.88
2022-12-15T13:14:42.526Z,86.78
2022-12-15T13:17:26.568Z,86.79
2022-12-15T13:20:25.931Z,86.80
2022-12-15T13:23:18.276Z,86.80
2022-12-15T13:26:05.400Z,86.89
2022-12-15T13:28:48.574Z,86.91
2022-12-15T13:31:29.868Z,86.99
2022-12-15T13:34:23.768Z,87.05
2022-12-15T13:37:02.412Z,87.01
2022-12-15T13:39:50.737Z,87.03
2022-12-15T13:42:41.605Z,87.05
2022-12-15T13:45:50.236Z,87.15
2022-12-15T13:48:31.797Z,87.18
2022-12-15T13:51:14.686Z,87.21
2022-12-15T13:53:51.644Z,87.14
2022-12-15T13:56:28.501Z,87.17
2022-12-15T13:59:05.264Z,87.32
2022-12-15T14:01:34.154Z,87.28
2022-12-15T14:04:15.132Z,87.13
2022-12-15T14:06:48.527Z,87.23
2022-12-15T14:09:25.819Z,87.23
2022-12-15T14:11:55.108Z,87.32
2022-12-15T14:14:28.976Z,87.34
2022-12-15T14:17:02.231Z,87.52
2022-12-15T14:19:43.363Z,87.49
2022-12-15T14:22:28.021Z,87.53
2022-12-15T14:25:12.931Z,87.48
2022-12-15T14:27:41.893Z,87.48
2022-12-15T14:30:22.024Z,87.57
2022-12-15T14:32:54.424Z,87.60
2022-12-15T14:35:30.598Z,87.60
2022-12-15T14:38:06.618Z,87.58
2022-12-15T14:40:49.212Z,87.69
2022-12-15T14:43:22.732Z,87.68
2022-12-15T14:45:57.041Z,87.71
2022-12-15T14:48:42.322Z,87.97
2022-12-15T14:51:14.357Z,88.35
2022-12-15T14:53:48.073Z,88.24
2022-12-15T14:56:30.299Z,88.54
2022-12-15T14:59:03.568Z,88.37
2022-12-15T15:01:40.444Z,88.70
2022-12-15T15:03:10.905Z,85.51
2022-12-15T15:04:25.569Z,88.66
2022-12-15T15:06:58.277Z,88.94
2022-12-15T15:09:29.872Z,89.22
2022-12-15T15:12:03.765Z,89.27
2022-12-15T15:14:38.279Z,89.18
2022-12-15T15:17:17.041Z,89.27
2022-12-15T15:19:50.855Z,89.51
2022-12-15T15:22:36.777Z,89.35
2022-12-15T15:50:31.938Z,89.38
2022-12-15T15:53:00.647Z,89.25
2022-12-15T15:55:39.417Z,89.24
2022-12-15T15:58:14.817Z,89.39
2022-12-15T16:00:44.244Z,89.20
2022-12-15T16:03:13.302Z,89.27
2022-12-15T16:05:43.334Z,89.25
2022-12-15T16:08:17.349Z,89.06
2022-12-15T16:10:48.534Z,89.20
2022-12-15T16:13:25.529Z,89.24
2022-12-15T16:15:57.483Z,89.20
2022-12-15T16:18:29.183Z,89.29
2022-12-15T16:21:02.492Z,89.32
2022-12-15T16:23:31.382Z,89.44
2022-12-15T16:26:13.998Z,89.38
2022-12-15T16:28:43.188Z,89.40
2022-12-15T16:31:15.935Z,89.50
2022-12-15T16:33:44.889Z,89.50
2022-12-15T16:36:14.805Z,89.59
2022-12-15T16:38:43.727Z,89.54
2022-12-15T16:41:16.941Z,89.60
2022-12-15T16:43:48.093Z,89.54
2022-12-15T16:46:17.439Z,89.59
2022-12-15T16:48:48.434Z,89.64
2022-12-15T16:51:27.582Z,89.71
2022-12-15T16:53:58.345Z,89.68
2022-12-15T16:56:27.335Z,89.69
2022-12-15T16:59:23.782Z,89.59
2022-12-15T17:01:47.879Z,89.58
2022-12-15T17:04:16.955Z,89.53
2022-12-15T17:06:46.233Z,89.54
2022-12-15T17:09:21.615Z,89.62
2022-12-15T17:12:05.112Z,89.63
2022-12-15T17:14:37.424Z,89.52
2022-12-15T17:17:12.920Z,89.44
2022-12-15T17:19:57.999Z,89.42
2022-12-15T17:22:32.302Z,89.44
2022-12-15T17:25:02.025Z,89.45
2022-12-15T17:27:31.544Z,89.38
2022-12-15T17:30:02.569Z,89.40
2022-12-15T17:32:36.469Z,89.36
2022-12-15T17:35:21.554Z,89.32
2022-12-15T17:37:54.852Z,89.35
2022-12-15T17:40:24.702Z,89.39
2022-12-15T17:42:53.793Z,89.31
2022-12-15T17:45:26.196Z,89.24
2022-12-15T17:47:55.904Z,89.20
2022-12-15T17:50:25.740Z,89.20
2022-12-15T17:52:58.146Z,89.15
2022-12-15T17:55:34.589Z,89.13
2022-12-15T17:58:18.529Z,89.13
2022-12-15T18:00:50.090Z,89.11
2022-12-15T18:03:21.435Z,89.12
2022-12-15T18:05:52.148Z,89.11
2022-12-15T18:08:23.418Z,89.14
2022-12-15T18:10:54.796Z,89.14
2022-12-15T18:13:27.948Z,89.15
2022-12-15T18:16:01.848Z,89.17
2022-12-15T18:18:32.207Z,89.22
2022-12-15T18:21:12.460Z,89.22
2022-12-15T18:23:44.936Z,89.20
2022-12-15T18:26:14.962Z,89.18
2022-12-15T18:28:44.972Z,89.22
2022-12-15T18:31:20.217Z,89.24
2022-12-15T18:33:50.061Z,89.20
2022-12-15T18:36:20.921Z,89.16
2022-12-15T18:38:50.187Z,89.22
2022-12-15T18:41:20.873Z,89.21
2022-12-15T18:43:50.389Z,89.21
2022-12-15T18:46:19.772Z,89.27
2022-12-15T18:48:48.678Z,89.30
2022-12-15T18:51:20.133Z,89.32
2022-12-15T18:53:49.435Z,89.32
2022-12-15T18:56:21.001Z,89.21
2022-12-15T18:58:50.308Z,89.18
2022-12-15T19:01:20.105Z,89.11
2022-12-15T19:03:50.021Z,89.06
2022-12-15T19:06:25.963Z,89.03
2022-12-15T19:08:55.503Z,88.95
2022-12-15T19:11:30.361Z,88.82
2022-12-15T19:14:01.619Z,88.75
2022-12-15T19:16:51.802Z,88.74
2022-12-15T19:19:39.764Z,88.70
2022-12-15T19:22:30.112Z,88.66
2022-12-15T19:25:05.395Z,88.63
2022-12-15T19:27:34.443Z,88.54
2022-12-15T19:30:13.968Z,88.49
2022-12-15T19:32:47.963Z,88.49
2022-12-15T19:35:20.345Z,88.49
2022-12-15T19:37:49.764Z,88.51
2022-12-15T19:40:22.104Z,88.37
2022-12-15T19:42:55.548Z,88.34
2022-12-15T19:45:27.105Z,88.36
2022-12-15T19:47:57.062Z,88.31
2022-12-15T19:50:28.681Z,88.31
2022-12-15T19:53:01.232Z,88.32
2022-12-15T19:55:34.635Z,88.34
2022-12-15T19:58:27.698Z,88.38
2022-12-15T20:01:04.239Z,88.41
2022-12-15T20:03:34.641Z,88.45
2022-12-15T20:06:11.044Z,88.47
2022-12-15T20:08:45.148Z,88.46
2022-12-15T20:11:19.367Z,88.44
2022-12-15T20:13:50.182Z,88.49
2022-12-15T20:16:20.018Z,88.47
2022-12-15T20:18:50.888Z,88.49
2022-12-15T20:21:22.982Z,88.49
2022-12-15T20:23:56.140Z,88.46
2022-12-15T20:26:26.092Z,88.34
2022-12-15T20:28:54.817Z,88.43
2022-12-15T20:31:25.143Z,88.32
2022-12-15T20:33:54.388Z,88.34
2022-12-15T20:36:26.167Z,88.28
2022-12-15T20:38:56.216Z,88.13
2022-12-15T20:41:27.008Z,87.95
2022-12-15T20:43:57.260Z,87.82
2022-12-15T20:46:33.442Z,87.94
2022-12-15T20:49:04.097Z,88.06
2022-12-15T20:51:33.572Z,88.08
2022-12-15T20:54:03.365Z,88.05
2022-12-15T20:56:32.333Z,88.06
2022-12-15T20:59:01.770Z,87.83
2022-12-15T21:01:34.740Z,87.86
2022-12-15T21:04:16.560Z,88.11
2022-12-15T21:06:52.837Z,88.19
2022-12-15T21:09:24.022Z,88.22
2022-12-15T21:11:54.650Z,88.37
2022-12-15T21:14:24.839Z,88.41
2022-12-15T21:16:53.666Z,88.36
2022-12-15T21:19:23.259Z,88.34
2022-12-15T21:21:55.248Z,88.45
2022-12-15T21:24:25.986Z,88.42
2022-12-15T21:26:55.156Z,88.33
2022-12-15T21:29:27.313Z,88.29
2022-12-15T21:31:56.045Z,88.30
2022-12-15T21:34:24.765Z,88.37
2022-12-15T21:36:55.267Z,88.44
2022-12-15T21:39:28.893Z,88.54
2022-12-15T21:42:00.368Z,88.51
2022-12-15T21:44:29.486Z,88.45
2022-12-15T21:46:58.262Z,88.35
2022-12-15T21:49:28.698Z,88.40
2022-12-15T21:52:00.700Z,88.49
2022-12-15T21:54:32.726Z,88.53
2022-12-15T21:57:03.691Z,88.67
2022-12-15T21:59:33.317Z,88.67
2022-12-15T22:02:18.264Z,88.73
2022-12-15T22:04:51.557Z,88.83
2022-12-15T22:07:21.177Z,88.92
2022-12-15T22:09:51.155Z,89.09
2022-12-15T22:12:23.331Z,89.17
2022-12-15T22:14:52.807Z,89.23
2022-12-15T22:17:22.433Z,89.25
2022-12-15T22:19:52.587Z,89.33
2022-12-15T22:22:23.771Z,89.46
2022-12-15T22:24:54.489Z,89.63
2022-12-15T22:27:33.570Z,89.79
2022-12-15T22:30:03.892Z,89.93
2022-12-15T22:32:33.000Z,90.05
2022-12-15T22:35:02.155Z,90.02
2022-12-15T22:37:30.888Z,90.01
2022-12-15T22:40:00.837Z,90.06
2022-12-15T22:42:29.578Z,90.07
2022-12-15T22:44:58.708Z,90.11
2022-12-15T22:47:30.258Z,90.13
2022-12-15T22:49:59.053Z,90.16
2022-12-15T22:52:30.899Z,90.04
2022-12-15T22:55:00.694Z,90.00
2022-12-15T22:57:30.415Z,90.01
2022-12-15T23:00:05.109Z,90.03
2022-12-15T23:02:36.133Z,90.07
2022-12-15T23:05:06.842Z,90.09
2022-12-15T23:07:35.950Z,90.09
2022-12-15T23:10:24.730Z,90.10
2022-12-15T23:12:54.303Z,90.10
2022-12-15T23:15:42.823Z,90.12
2022-12-15T23:18:12.832Z,90.18
2022-12-15T23:20:42.855Z,90.33
2022-12-15T23:23:11.872Z,90.43
2022-12-15T23:25:43.699Z,90.61
2022-12-15T23:28:15.537Z,90.69
2022-12-15T23:30:49.341Z,90.57
2022-12-15T23:33:18.643Z,90.51
2022-12-15T23:35:48.767Z,90.44
2022-12-15T23:38:17.686Z,90.43
2022-12-15T23:40:51.090Z,90.43
2022-12-15T23:43:22.669Z,90.48
2022-12-15T23:45:58.019Z,90.44
2022-12-15T23:48:31.406Z,90.40
2022-12-15T23:51:11.971Z,90.32
2022-12-15T23:53:42.734Z,90.32
2022-12-15T23:56:13.889Z,90.28
2022-12-15T23:58:44.810Z,90.25
